createdAt,value
2023-07-22T00:00:15.846Z,79.22
2023-07-22T00:03:05.088Z,79.47
2023-07-22T00:05:34.131Z,79.95
2023-07-22T00:08:03.049Z,80.15
2023-07-22T00:10:31.814Z,80.76
2023-07-22T00:13:00.549Z,80.55
2023-07-22T00:15:30.463Z,80.63
2023-07-22T00:17:59.268Z,81.14
2023-07-22T00:20:30.421Z,81.06
2023-07-22T00:22:59.815Z,81.28
2023-07-22T00:25:28.711Z,81.27
2023-07-22T00:27:58.142Z,81.30
2023-07-22T00:30:28.965Z,81.61
2023-07-22T00:32:58.229Z,81.77
2023-07-22T00:35:27.096Z,81.83
2023-07-22T00:37:56.132Z,81.56
2023-07-22T00:40:25.219Z,81.55
2023-07-22T00:42:54.091Z,82.17
2023-07-22T00:45:26.916Z,82.28
2023-07-22T00:47:55.865Z,82.25
2023-07-22T00:50:27.331Z,82.22
2023-07-22T00:52:56.501Z,82.60
2023-07-22T00:55:26.412Z,82.49
2023-07-22T00:57:56.704Z,82.39
2023-07-22T01:00:28.625Z,82.71
2023-07-22T01:02:57.899Z,83.08
2023-07-22T01:05:31.416Z,82.72
2023-07-22T01:08:00.543Z,82.59
2023-07-22T01:10:29.584Z,82.72
2023-07-22T01:12:59.448Z,82.72
2023-07-22T01:15:29.719Z,83.33
2023-07-22T01:18:02.134Z,83.59
2023-07-22T01:20:31.889Z,83.85
2023-07-22T01:23:01.088Z,83.46
2023-07-22T01:25:30.903Z,83.47
2023-07-22T01:28:00.676Z,83.36
2023-07-22T01:30:29.554Z,83.33
2023-07-22T01:33:01.119Z,83.35
2023-07-22T01:35:29.891Z,83.38
2023-07-22T01:37:58.734Z,83.33
2023-07-22T01:40:29.138Z,83.15
2023-07-22T01:42:57.897Z,83.43
2023-07-22T01:45:26.727Z,83.89
2023-07-22T01:47:55.535Z,83.64
2023-07-22T01:50:24.814Z,83.45
2023-07-22T01:52:53.689Z,83.04
2023-07-22T01:55:24.766Z,83.89
2023-07-22T01:57:54.764Z,83.97
2023-07-22T02:00:27.793Z,84.10
2023-07-22T02:02:57.890Z,83.65
2023-07-22T02:05:27.950Z,84.14
2023-07-22T02:07:56.696Z,84.33
2023-07-22T02:10:25.677Z,84.58
2023-07-22T02:12:54.627Z,84.75
2023-07-22T02:15:26.559Z,85.03
2023-07-22T02:17:57.205Z,84.88
2023-07-22T02:20:29.385Z,84.78
2023-07-22T02:22:58.247Z,85.00
2023-07-22T02:25:27.165Z,85.13
2023-07-22T02:27:55.857Z,84.89
2023-07-22T02:30:27.648Z,85.54
2023-07-22T02:32:56.808Z,85.31
2023-07-22T02:35:25.880Z,85.72
2023-07-22T02:37:54.775Z,85.50
2023-07-22T02:40:26.149Z,85.71
2023-07-22T02:42:55.039Z,85.23
2023-07-22T02:45:27.433Z,85.73
2023-07-22T02:47:56.296Z,85.56
2023-07-22T02:50:25.193Z,86.00
2023-07-22T02:52:54.232Z,85.99
2023-07-22T02:55:26.534Z,85.83
2023-07-22T02:57:55.351Z,85.93
2023-07-22T03:00:28.277Z,85.80
2023-07-22T03:03:01.209Z,85.92
2023-07-22T03:05:31.395Z,85.75
2023-07-22T03:08:00.676Z,85.33
2023-07-22T03:10:29.850Z,85.18
2023-07-22T03:13:00.246Z,85.19
2023-07-22T03:15:29.163Z,85.28
2023-07-22T03:17:59.761Z,85.20
2023-07-22T03:20:29.063Z,85.34
2023-07-22T03:22:57.790Z,85.93
2023-07-22T03:25:26.951Z,86.26
2023-07-22T03:27:57.012Z,86.54
2023-07-22T03:30:26.536Z,86.60
2023-07-22T03:32:55.437Z,86.67
2023-07-22T03:35:26.452Z,86.61
2023-07-22T03:37:55.391Z,86.56
2023-07-22T03:40:29.224Z,86.72
2023-07-22T03:42:58.246Z,85.92
2023-07-22T03:45:27.264Z,86.35
2023-07-22T03:47:58.725Z,86.28
2023-07-22T03:50:27.933Z,86.16
2023-07-22T03:52:56.974Z,86.03
2023-07-22T03:55:26.681Z,85.80
2023-07-22T03:57:55.575Z,86.12
2023-07-22T04:00:26.546Z,86.21
2023-07-22T04:02:55.450Z,86.31
2023-07-22T04:05:25.006Z,86.24
2023-07-22T04:07:53.941Z,86.15
2023-07-22T04:10:25.182Z,86.35
2023-07-22T04:12:54.024Z,86.51
2023-07-22T04:15:25.537Z,86.40
2023-07-22T04:17:54.353Z,86.35
2023-07-22T04:20:25.576Z,86.15
2023-07-22T04:22:54.540Z,86.20
2023-07-22T04:25:26.045Z,86.12
2023-07-22T04:27:55.099Z,86.12
2023-07-22T04:30:26.582Z,85.60
2023-07-22T04:32:56.133Z,85.41
2023-07-22T04:35:25.471Z,84.77
2023-07-22T04:37:54.277Z,84.39
2023-07-22T04:40:25.706Z,84.32
2023-07-22T04:42:54.441Z,83.98
2023-07-22T04:45:25.958Z,83.83
2023-07-22T04:47:54.960Z,83.50
2023-07-22T04:50:26.306Z,83.55
2023-07-22T04:52:56.142Z,83.30
2023-07-22T04:55:26.831Z,83.44
2023-07-22T04:57:55.871Z,83.54
2023-07-22T05:00:29.672Z,83.04
2023-07-22T05:02:57.677Z,82.99
2023-07-22T05:05:26.591Z,82.95
2023-07-22T05:07:55.408Z,82.98
2023-07-22T05:10:25.636Z,82.86
2023-07-22T05:12:54.570Z,83.21
2023-07-22T05:15:31.603Z,82.85
2023-07-22T05:18:00.598Z,83.10
2023-07-22T05:20:29.793Z,83.25
2023-07-22T05:22:59.326Z,82.98
2023-07-22T05:25:28.279Z,82.41
2023-07-22T05:27:57.115Z,82.79
2023-07-22T05:30:34.987Z,82.48
2023-07-22T05:33:05.395Z,82.52
2023-07-22T05:35:34.415Z,82.81
2023-07-22T05:38:04.829Z,82.69
2023-07-22T05:40:33.686Z,82.89
2023-07-22T05:43:03.450Z,83.01
2023-07-22T05:45:32.290Z,82.98
2023-07-22T05:48:01.185Z,82.68
2023-07-22T05:50:29.972Z,82.17
2023-07-22T05:52:59.163Z,82.35
2023-07-22T05:55:27.958Z,81.74
2023-07-22T05:57:57.150Z,81.23
2023-07-22T06:00:26.181Z,81.05
2023-07-22T06:02:55.149Z,81.13
2023-07-22T06:05:25.581Z,80.23
2023-07-22T06:07:57.672Z,79.67
2023-07-22T06:10:26.591Z,79.38
2023-07-22T06:12:55.385Z,78.73
2023-07-22T06:15:26.226Z,78.19
2023-07-22T06:17:55.290Z,78.48
2023-07-22T06:20:24.662Z,77.69
2023-07-22T06:22:53.468Z,77.11
2023-07-22T06:25:23.741Z,77.18
2023-07-22T06:27:54.760Z,77.68
2023-07-22T06:30:28.033Z,76.00
2023-07-22T06:32:57.250Z,75.10
2023-07-22T06:35:26.112Z,75.93
2023-07-22T06:37:54.786Z,74.37
2023-07-22T06:40:24.716Z,72.57
2023-07-22T06:42:53.422Z,72.98
2023-07-22T06:45:24.903Z,71.29
2023-07-22T06:47:54.199Z,69.97
2023-07-22T06:50:25.682Z,69.74
2023-07-22T06:52:54.576Z,69.36
2023-07-22T06:55:26.137Z,68.06
2023-07-22T06:57:57.675Z,69.03
2023-07-22T07:00:26.656Z,69.05
2023-07-22T07:02:56.232Z,69.52
2023-07-22T07:05:26.637Z,68.00
2023-07-22T07:07:56.326Z,67.03
2023-07-22T07:10:25.519Z,66.50
2023-07-22T07:12:54.290Z,65.69
2023-07-22T07:15:25.048Z,66.65
2023-07-22T07:17:54.021Z,67.81
2023-07-22T07:20:26.458Z,65.65
2023-07-22T07:22:55.344Z,65.37
2023-07-22T07:25:27.475Z,65.55
2023-07-22T07:27:56.357Z,64.11
2023-07-22T07:30:28.447Z,65.88
2023-07-22T07:32:57.409Z,63.46
2023-07-22T07:35:26.358Z,63.39
2023-07-22T07:37:55.323Z,61.92
2023-07-22T07:40:27.462Z,60.74
2023-07-22T07:42:56.489Z,60.45
2023-07-22T07:45:26.600Z,60.71
2023-07-22T07:47:55.477Z,61.30
2023-07-22T07:50:26.139Z,60.59
2023-07-22T07:52:55.205Z,60.04
2023-07-22T07:55:25.078Z,58.52
2023-07-22T07:57:53.869Z,58.64
2023-07-22T08:00:25.829Z,59.12
2023-07-22T08:02:54.546Z,59.00
2023-07-22T08:05:26.527Z,59.74
2023-07-22T08:07:55.533Z,58.43
2023-07-22T08:10:27.460Z,58.22
2023-07-22T08:12:56.449Z,57.93
2023-07-22T08:15:26.238Z,58.15
2023-07-22T08:17:55.142Z,56.95
2023-07-22T08:20:24.801Z,56.44
2023-07-22T08:22:53.735Z,56.53
2023-07-22T08:25:25.306Z,55.46
2023-07-22T08:27:54.034Z,56.23
2023-07-22T08:30:26.316Z,57.16
2023-07-22T08:32:57.274Z,55.19
2023-07-22T08:35:27.068Z,56.13
2023-07-22T08:37:55.974Z,55.57
2023-07-22T08:40:25.585Z,55.33
2023-07-22T08:42:55.117Z,55.17
2023-07-22T08:45:33.235Z,54.90
2023-07-22T08:48:05.346Z,55.01
2023-07-22T08:50:40.075Z,55.17
2023-07-22T08:53:10.883Z,55.21
2023-07-22T08:55:43.008Z,55.26
2023-07-22T08:58:13.643Z,54.87
2023-07-22T09:00:43.205Z,54.24
2023-07-22T09:03:16.336Z,55.23
2023-07-22T09:05:46.119Z,54.20
2023-07-22T09:08:15.299Z,53.39
2023-07-22T09:10:44.674Z,52.53
2023-07-22T09:13:16.549Z,52.79
2023-07-22T09:15:46.305Z,51.37
2023-07-22T09:18:16.466Z,51.71
2023-07-22T09:20:45.357Z,50.23
2023-07-22T09:23:15.317Z,50.70
2023-07-22T09:25:45.398Z,50.71
2023-07-22T09:28:14.928Z,51.42
2023-07-22T09:30:43.733Z,50.31
2023-07-22T09:33:23.172Z,49.74
2023-07-22T09:35:51.976Z,48.91
2023-07-22T09:38:25.201Z,48.69
2023-07-22T09:40:53.288Z,47.32
2023-07-22T09:43:24.095Z,46.92
2023-07-22T09:45:53.998Z,45.49
2023-07-22T09:48:24.211Z,46.40
2023-07-22T09:50:59.195Z,45.30
2023-07-22T09:53:28.125Z,43.60
2023-07-22T09:56:03.923Z,42.66
2023-07-22T09:58:34.103Z,43.05
2023-07-22T10:01:04.908Z,43.15
2023-07-22T10:03:39.179Z,41.78
2023-07-22T10:06:09.133Z,43.59
2023-07-22T10:08:46.113Z,41.19
2023-07-22T10:11:16.643Z,41.19
2023-07-22T10:13:46.141Z,40.52
2023-07-22T10:16:16.162Z,41.06
2023-07-22T10:18:46.112Z,41.24
2023-07-22T10:21:15.887Z,44.51
2023-07-22T10:23:48.502Z,42.74
2023-07-22T10:26:21.309Z,44.19
2023-07-22T10:28:56.669Z,44.23
2023-07-22T10:31:25.864Z,41.84
2023-07-22T10:33:55.323Z,42.09
2023-07-22T10:36:30.867Z,39.31
2023-07-22T10:39:04.288Z,38.90
2023-07-22T10:41:39.142Z,39.48
2023-07-22T10:44:10.996Z,40.63
2023-07-22T10:46:44.129Z,40.91
2023-07-22T10:49:16.860Z,42.96
2023-07-22T10:51:51.012Z,41.62
2023-07-22T10:54:34.502Z,43.36
2023-07-22T10:57:04.956Z,44.63
2023-07-22T10:59:36.527Z,41.26
2023-07-22T11:02:23.665Z,39.96
2023-07-22T11:04:56.832Z,41.64
2023-07-22T11:07:33.882Z,40.75
2023-07-22T11:10:16.941Z,39.89
2023-07-22T11:12:46.679Z,39.28
2023-07-22T11:15:19.263Z,41.36
2023-07-22T11:17:49.463Z,40.88
2023-07-22T11:20:18.494Z,39.37
2023-07-22T11:22:48.129Z,39.54
2023-07-22T11:25:20.252Z,38.54
2023-07-22T11:27:53.666Z,38.65
2023-07-22T11:30:28.272Z,38.67
2023-07-22T11:33:00.444Z,39.31
2023-07-22T11:35:30.202Z,41.36
2023-07-22T11:38:03.999Z,39.14
2023-07-22T11:40:35.681Z,38.10
2023-07-22T11:43:05.109Z,38.75
2023-07-22T11:45:34.094Z,38.34
2023-07-22T11:48:09.854Z,38.96
2023-07-22T11:50:38.849Z,38.65
2023-07-22T11:53:09.486Z,40.19
2023-07-22T11:55:41.104Z,40.48
2023-07-22T11:58:11.915Z,41.10
2023-07-22T12:00:52.917Z,40.99
2023-07-22T12:03:34.610Z,42.02
2023-07-22T12:06:04.459Z,41.35
2023-07-22T12:08:33.385Z,40.34
2023-07-22T12:11:04.446Z,38.19
2023-07-22T12:13:40.694Z,38.07
2023-07-22T12:16:09.598Z,37.70
2023-07-22T12:18:45.452Z,37.14
2023-07-22T12:21:16.390Z,37.62
2023-07-22T12:23:48.231Z,37.96
2023-07-22T12:26:17.025Z,38.32
2023-07-22T12:28:45.827Z,37.90
2023-07-22T12:31:15.363Z,39.18
2023-07-22T12:33:44.270Z,38.76
2023-07-22T12:36:13.893Z,39.26
2023-07-22T12:38:46.813Z,39.87
2023-07-22T12:41:16.902Z,39.31
2023-07-22T12:43:45.809Z,38.71
2023-07-22T12:46:17.022Z,38.36
2023-07-22T12:48:46.073Z,37.11
2023-07-22T12:51:17.672Z,36.33
2023-07-22T12:53:46.606Z,35.99
2023-07-22T12:56:18.378Z,36.32
2023-07-22T12:58:47.250Z,36.27
2023-07-22T13:01:16.670Z,36.16
2023-07-22T13:03:45.734Z,36.45
2023-07-22T13:06:17.374Z,35.41
2023-07-22T13:08:46.276Z,36.16
2023-07-22T13:11:17.291Z,35.70
2023-07-22T13:13:46.228Z,35.79
2023-07-22T13:16:17.367Z,36.13
2023-07-22T13:18:46.233Z,35.25
2023-07-22T13:21:18.482Z,35.53
2023-07-22T13:23:47.285Z,35.75
2023-07-22T13:26:17.340Z,36.55
2023-07-22T13:28:46.153Z,36.13
2023-07-22T13:31:15.662Z,35.64
2023-07-22T13:33:44.497Z,36.88
2023-07-22T13:36:14.173Z,37.18
2023-07-22T13:38:46.349Z,37.79
2023-07-22T13:41:15.610Z,36.98
2023-07-22T13:43:44.351Z,37.11
2023-07-22T13:46:14.696Z,36.18
2023-07-22T13:48:43.469Z,35.78
2023-07-22T13:51:12.201Z,35.72
2023-07-22T13:53:45.016Z,36.11
2023-07-22T13:56:14.877Z,35.68
2023-07-22T13:58:43.758Z,35.94
2023-07-22T14:01:16.082Z,35.78
2023-07-22T14:03:44.929Z,35.72
2023-07-22T14:06:14.689Z,36.46
2023-07-22T14:08:46.855Z,36.54
2023-07-22T14:11:16.066Z,36.44
2023-07-22T14:13:44.955Z,36.57
2023-07-22T14:16:22.652Z,35.58
2023-07-22T14:18:53.445Z,36.10
2023-07-22T14:21:22.360Z,37.01
2023-07-22T14:23:51.078Z,35.03
2023-07-22T14:26:20.996Z,33.96
2023-07-22T14:28:49.653Z,34.67
2023-07-22T14:31:18.596Z,34.23
2023-07-22T14:33:47.498Z,35.79
2023-07-22T14:36:17.142Z,36.52
2023-07-22T14:38:46.686Z,38.12
2023-07-22T14:41:17.033Z,38.69
2023-07-22T14:43:45.756Z,38.80
2023-07-22T14:46:17.305Z,39.01
2023-07-22T14:48:46.286Z,39.36
2023-07-22T14:51:16.426Z,39.51
2023-07-22T14:53:48.254Z,39.43
2023-07-22T14:56:17.078Z,39.24
2023-07-22T14:58:46.240Z,39.00
2023-07-22T15:01:17.574Z,39.68
2023-07-22T15:03:46.576Z,39.02
2023-07-22T15:06:15.996Z,38.34
2023-07-22T15:08:45.006Z,38.08
2023-07-22T15:11:16.094Z,38.72
2023-07-22T15:13:45.020Z,38.69
2023-07-22T15:16:16.103Z,39.09
2023-07-22T15:18:44.969Z,38.90
2023-07-22T15:21:14.423Z,39.21
2023-07-22T15:23:46.350Z,39.95
2023-07-22T15:26:18.076Z,40.04
2023-07-22T15:28:47.746Z,39.91
2023-07-22T15:31:21.692Z,40.74
2023-07-22T15:33:51.201Z,41.06
2023-07-22T15:36:20.017Z,41.57
2023-07-22T15:38:48.963Z,41.49
2023-07-22T15:41:17.938Z,41.93
2023-07-22T15:43:49.001Z,41.40
2023-07-22T15:46:17.788Z,41.97
2023-07-22T15:48:46.697Z,42.02
2023-07-22T15:51:18.343Z,42.10
2023-07-22T15:53:47.166Z,42.30
2023-07-22T15:56:16.933Z,42.13
2023-07-22T15:58:45.694Z,42.22
2023-07-22T16:01:15.542Z,42.91
2023-07-22T16:03:44.506Z,42.96
2023-07-22T16:06:26.909Z,43.30
2023-07-22T16:09:04.180Z,43.88
2023-07-22T16:11:33.239Z,43.18
2023-07-22T16:14:04.166Z,43.18
2023-07-22T16:16:33.962Z,42.80
2023-07-22T16:19:06.042Z,43.50
2023-07-22T16:21:34.798Z,43.52
2023-07-22T16:24:03.808Z,43.33
2023-07-22T16:26:32.584Z,43.64
2023-07-22T16:29:02.640Z,43.85
2023-07-22T16:31:31.508Z,43.67
2023-07-22T16:34:02.409Z,43.68
2023-07-22T16:36:31.287Z,43.03
2023-07-22T16:38:59.994Z,42.83
2023-07-22T16:41:29.161Z,42.85
2023-07-22T16:43:58.275Z,42.58
2023-07-22T16:46:28.207Z,43.24
2023-07-22T16:48:57.097Z,42.89
2023-07-22T16:51:26.079Z,43.29
2023-07-22T16:53:55.390Z,43.29
2023-07-22T16:56:24.588Z,43.57
2023-07-22T16:58:54.371Z,42.86
2023-07-22T17:01:23.562Z,42.55
2023-07-22T17:03:52.393Z,42.60
2023-07-22T17:06:21.536Z,42.69
2023-07-22T17:08:50.437Z,43.31
2023-07-22T17:11:19.458Z,42.98
2023-07-22T17:13:50.449Z,44.02
2023-07-22T17:16:19.523Z,44.19
2023-07-22T17:18:48.339Z,43.73
2023-07-22T17:21:17.574Z,44.22
2023-07-22T17:23:46.329Z,44.72
2023-07-22T17:26:17.664Z,44.84
2023-07-22T17:28:46.496Z,44.66
2023-07-22T17:31:16.795Z,44.97
2023-07-22T17:33:45.697Z,44.48
2023-07-22T17:36:17.378Z,44.41
2023-07-22T17:38:46.264Z,44.19
2023-07-22T17:41:16.113Z,44.91
2023-07-22T17:43:45.135Z,44.49
2023-07-22T17:46:16.391Z,44.83
2023-07-22T17:48:47.672Z,44.72
2023-07-22T17:51:17.979Z,45.37
2023-07-22T17:53:46.709Z,45.27
2023-07-22T17:56:15.760Z,45.32
2023-07-22T17:58:44.853Z,45.63
2023-07-22T18:01:13.658Z,46.82
2023-07-22T18:03:44.174Z,45.96
2023-07-22T18:06:13.124Z,46.60
2023-07-22T18:08:45.554Z,46.29
2023-07-22T18:11:15.108Z,46.81
2023-07-22T18:13:44.119Z,46.70
2023-07-22T18:16:13.024Z,47.04
2023-07-22T18:18:41.981Z,47.18
2023-07-22T18:21:11.345Z,47.14
2023-07-22T18:23:46.924Z,47.68
2023-07-22T18:26:17.557Z,47.81
2023-07-22T18:28:46.383Z,47.85
2023-07-22T18:31:19.396Z,47.82
2023-07-22T18:33:49.820Z,48.45
2023-07-22T18:36:18.873Z,48.57
2023-07-22T18:38:47.848Z,48.83
2023-07-22T18:41:19.384Z,48.87
2023-07-22T18:43:48.550Z,49.19
2023-07-22T18:46:21.578Z,49.55
2023-07-22T18:48:50.531Z,49.78
2023-07-22T18:51:19.593Z,50.14
2023-07-22T18:53:48.606Z,50.63
2023-07-22T18:56:17.493Z,51.01
2023-07-22T18:58:46.284Z,51.36
2023-07-22T19:01:17.599Z,52.02
2023-07-22T19:03:46.667Z,52.29
2023-07-22T19:06:16.621Z,52.48
2023-07-22T19:08:46.904Z,52.69
2023-07-22T19:11:18.682Z,52.79
2023-07-22T19:13:47.524Z,52.96
2023-07-22T19:16:16.779Z,53.03
2023-07-22T19:18:45.775Z,53.26
2023-07-22T19:21:15.905Z,53.46
2023-07-22T19:23:45.934Z,53.87
2023-07-22T19:26:17.073Z,54.18
2023-07-22T19:28:45.955Z,54.03
2023-07-22T19:31:17.084Z,55.01
2023-07-22T19:33:45.965Z,55.43
2023-07-22T19:36:17.449Z,55.89
2023-07-22T19:38:46.425Z,56.40
2023-07-22T19:41:17.993Z,57.03
2023-07-22T19:43:46.721Z,57.57
2023-07-22T19:46:17.443Z,57.15
2023-07-22T19:48:46.392Z,57.04
2023-07-22T19:51:18.939Z,57.36
2023-07-22T19:53:48.299Z,56.96
2023-07-22T19:56:18.148Z,57.31
2023-07-22T19:58:47.235Z,57.92
2023-07-22T20:01:19.750Z,58.01
2023-07-22T20:03:51.892Z,58.51
2023-07-22T20:06:20.802Z,58.51
2023-07-22T20:08:52.228Z,58.53
2023-07-22T20:11:20.989Z,58.66
2023-07-22T20:13:51.697Z,59.13
2023-07-22T20:16:20.566Z,59.73
2023-07-22T20:18:49.504Z,59.97
2023-07-22T20:21:18.358Z,59.61
2023-07-22T20:23:49.210Z,59.59
2023-07-22T20:26:18.038Z,60.21
2023-07-22T20:28:46.992Z,59.79
2023-07-22T20:31:18.627Z,59.83
2023-07-22T20:33:47.617Z,60.72
2023-07-22T20:36:17.694Z,61.06
2023-07-22T20:38:46.569Z,61.07
2023-07-22T20:41:18.128Z,61.51
2023-07-22T20:43:47.357Z,61.83
2023-07-22T20:46:18.589Z,61.93
2023-07-22T20:48:47.365Z,62.39
2023-07-22T20:51:20.152Z,62.04
2023-07-22T20:53:49.217Z,62.49
2023-07-22T20:56:18.699Z,62.26
2023-07-22T20:58:47.445Z,62.60
2023-07-22T21:01:18.558Z,62.35
2023-07-22T21:03:47.377Z,62.24
2023-07-22T21:06:18.146Z,62.87
2023-07-22T21:08:47.070Z,63.08
2023-07-22T21:11:16.922Z,62.76
2023-07-22T21:13:45.710Z,62.88
2023-07-22T21:16:15.726Z,63.26
2023-07-22T21:18:44.576Z,63.32
2023-07-22T21:21:16.215Z,63.61
2023-07-22T21:23:45.137Z,63.54
2023-07-22T21:26:14.085Z,63.42
2023-07-22T21:28:43.359Z,63.46
2023-07-22T21:31:12.217Z,63.53
2023-07-22T21:33:41.146Z,63.59
2023-07-22T21:36:10.630Z,63.72
2023-07-22T21:38:45.646Z,63.81
2023-07-22T21:41:16.771Z,64.21
2023-07-22T21:43:45.708Z,64.28
2023-07-22T21:46:16.857Z,64.36
2023-07-22T21:48:45.771Z,64.54
2023-07-22T21:51:16.857Z,64.73
2023-07-22T21:53:45.630Z,65.46
2023-07-22T21:56:16.115Z,65.46
2023-07-22T21:58:45.085Z,66.03
2023-07-22T22:01:13.848Z,66.14
2023-07-22T22:03:43.850Z,66.63
2023-07-22T22:06:12.673Z,66.73
2023-07-22T22:08:45.451Z,66.86
2023-07-22T22:11:16.727Z,67.50
2023-07-22T22:13:45.502Z,67.37
2023-07-22T22:16:15.786Z,67.64
2023-07-22T22:18:44.665Z,67.87
2023-07-22T22:21:13.532Z,68.43
2023-07-22T22:23:46.002Z,68.53
2023-07-22T22:26:17.120Z,68.63
2023-07-22T22:28:45.914Z,68.74
2023-07-22T22:31:17.676Z,69.89
2023-07-22T22:33:46.488Z,69.94
2023-07-22T22:36:18.254Z,70.33
2023-07-22T22:38:46.940Z,70.36
2023-07-22T22:41:17.974Z,70.18
2023-07-22T22:43:46.899Z,70.14
2023-07-22T22:46:16.885Z,71.04
2023-07-22T22:48:45.848Z,70.70
2023-07-22T22:51:17.212Z,70.75
2023-07-22T22:53:46.044Z,70.50
2023-07-22T22:56:16.019Z,70.24
2023-07-22T22:58:44.828Z,70.63
2023-07-22T23:01:16.524Z,70.82
2023-07-22T23:03:45.671Z,71.25
2023-07-22T23:06:15.896Z,71.13
2023-07-22T23:08:46.346Z,70.77
2023-07-22T23:11:21.659Z,70.48
2023-07-22T23:13:52.388Z,70.85
2023-07-22T23:16:21.671Z,71.16
2023-07-22T23:18:50.990Z,71.38
2023-07-22T23:21:20.173Z,71.74
2023-07-22T23:23:48.998Z,72.07
2023-07-22T23:26:17.906Z,71.84
2023-07-22T23:28:46.950Z,71.85
2023-07-22T23:31:18.549Z,72.10
2023-07-22T23:33:47.273Z,72.26
2023-07-22T23:36:18.593Z,72.72
2023-07-22T23:38:47.492Z,72.50
2023-07-22T23:41:16.744Z,72.95
2023-07-22T23:43:45.534Z,72.83
2023-07-22T23:46:14.460Z,73.11
2023-07-22T23:48:44.013Z,73.10
2023-07-22T23:51:12.812Z,73.32
2023-07-22T23:53:44.751Z,74.06
2023-07-22T23:56:13.571Z,74.60
2023-07-22T23:58:42.373Z,74.42
